Time;durP1;ratioP1;P1;durP2;ratioP2;P2;SDS_P1;SDS_P2;PMS_P1;PMS_P2;Temp;Humidity;BMP_temperature;BMP_pressure;BME280_temperature;BME280_humidity;BME280_pressure;Samples;Min_cycle;Max_cycle;Signal;HPM_P1;HPM_P2
2024/01/20 06:14:17;;;;;;;;;;;-10.30;99.90;;;;;;5057712;28;19927;-77
2024/01/20 06:16:44;;;;;;;;;;;-10.30;99.90;;;;;;5057916;28;19924;-76
2024/01/20 06:19:10;;;;;;;;;;;-10.30;99.90;;;;;;5058574;28;19928;-76
2024/01/20 06:21:37;;;;;;;;;;;-10.30;99.90;;;;;;5048170;28;19948;-77
2024/01/20 06:24:04;;;;;;;;;;;-10.30;99.90;;;;;;5036299;28;20286;-76
2024/01/20 06:26:30;;;;;;;;;;;-10.20;99.90;;;;;;5038003;28;20370;-77
2024/01/20 06:28:57;;;;;;;;;;;-10.20;99.90;;;;;;5036486;28;20298;-77
2024/01/20 06:31:25;;;;;;;;;;;-9.60;99.90;;;;;;5037196;28;20015;-77
2024/01/20 06:33:52;;;;;;;;;;;-10.20;99.90;;;;;;5036441;28;19932;-77
2024/01/20 06:36:21;;;;;;;;;;;-10.20;99.90;;;;;;5035807;28;20282;-77
2024/01/20 06:38:47;;;;;;;;;;;-10.20;99.90;;;;;;5035265;28;19925;-77
2024/01/20 06:41:14;;;;;;;;;;;-10.20;99.90;;;;;;5035248;28;20297;-77
2024/01/20 06:43:40;;;;;;;;;;;-10.20;99.90;;;;;;5034993;28;20336;-77
2024/01/20 06:46:07;;;;;;;;;;;-10.20;99.90;;;;;;5034786;28;20386;-76
2024/01/20 06:48:35;;;;;;;;;;;-10.20;99.90;;;;;;5035252;28;19925;-77
2024/01/20 06:51:03;;;;;;;;;;;-10.20;99.90;;;;;;5034902;28;19929;-77
2024/01/20 06:53:29;;;;;;;;;;;-10.20;99.90;;;;;;5034999;28;19929;-76
2024/01/20 06:55:56;;;;;;;;;;;-10.20;99.90;;;;;;5035084;28;19932;-77
2024/01/20 06:58:23;;;;;;;;;;;-10.20;99.90;;;;;;5034722;28;19925;-77
2024/01/20 07:00:50;;;;;;;;;;;-10.20;99.90;;;;;;5034422;28;20390;-77
2024/01/20 07:03:16;;;;;;;;;;;-10.20;99.90;;;;;;5034858;28;19925;-76
2024/01/20 07:05:44;;;;;;;;;;;-10.20;99.90;;;;;;5034752;28;19976;-77
2024/01/20 07:08:11;;;;;;;;;;;-10.20;99.90;;;;;;5034684;28;19929;-77
2024/01/20 07:10:38;;;;;;;;;;;-10.20;99.90;;;;;;5034599;28;19929;-76
2024/01/20 07:13:05;;;;;;;;;;;-10.20;99.90;;;;;;5034157;28;20020;-76
2024/01/20 07:15:31;;;;;;;;;;;-10.20;99.90;;;;;;5034560;28;19925;-76
2024/01/20 07:17:58;;;;;;;;;;;-10.10;99.90;;;;;;5034520;28;19933;-76
2024/01/20 07:20:25;;;;;;;;;;;-10.10;99.90;;;;;;5034552;28;19931;-76
2024/01/20 07:22:52;;;;;;;;;;;-10.10;99.90;;;;;;5034306;28;19975;-76
2024/01/20 07:25:19;;;;;;;;;;;-10.00;99.90;;;;;;5034757;28;20334;-76
2024/01/20 07:27:46;;;;;;;;;;;-9.90;99.90;;;;;;5035549;28;19925;-77
2024/01/20 07:30:13;;;;;;;;;;;-9.90;99.90;;;;;;5035801;28;19925;-75
2024/01/20 07:32:40;;;;;;;;;;;-9.90;99.90;;;;;;5036231;28;19925;-74
2024/01/20 07:35:07;;;;;;;;;;;-9.80;99.90;;;;;;5036342;28;19967;-74
2024/01/20 07:37:35;;;;;;;;;;;-9.80;99.90;;;;;;5035393;28;19960;-75
2024/01/20 07:40:04;;;;;;;;;;;-9.70;99.90;;;;;;5033702;28;20388;-74
2024/01/20 07:42:32;;;;;;;;;;;-9.60;99.90;;;;;;5034715;28;20398;-74
2024/01/20 07:44:59;;;;;;;;;;;-9.50;99.90;;;;;;5034651;28;19925;-74
2024/01/20 07:47:25;;;;;;;;;;;-9.50;99.90;;;;;;5034992;28;19931;-74
2024/01/20 07:49:52;;;;;;;;;;;-9.40;99.90;;;;;;5034721;28;19925;-74
2024/01/20 07:52:18;;;;;;;;;;;-9.30;99.90;;;;;;5035230;28;19951;-74
2024/01/20 07:54:45;;;;;;;;;;;-9.20;99.90;;;;;;5034847;28;19925;-75
2024/01/20 07:57:13;;;;;;;;;;;-8.70;99.90;;;;;;5034755;28;19932;-74
2024/01/20 07:59:39;;;;;;;;;;;-7.80;99.90;;;;;;5034284;28;19925;-75
2024/01/20 08:02:06;;;;;;;;;;;-6.80;99.90;;;;;;5034373;28;19979;-75
2024/01/20 08:04:33;;;;;;;;;;;-5.70;99.90;;;;;;5034577;28;20291;-75
2024/01/20 08:07:00;;;;;;;;;;;-4.70;99.90;;;;;;5034966;28;19933;-75
2024/01/20 08:09:26;;;;;;;;;;;-3.80;99.90;;;;;;5035904;28;19932;-75
2024/01/20 08:11:53;;;;;;;;;;;-3.00;99.90;;;;;;5036851;28;19932;-75
2024/01/20 08:14:21;;;;;;;;;;;-2.30;99.90;;;;;;5034510;28;19925;-76
2024/01/20 08:16:47;;;;;;;;;;;-1.60;99.90;;;;;;5035265;28;19947;-75
2024/01/20 08:19:14;;;;;;;;;;;-0.90;99.90;;;;;;5034799;28;20336;-75
2024/01/20 08:21:40;;;;;;;;;;;-0.40;99.90;;;;;;5033958;28;20386;-75
2024/01/20 08:24:07;;;;;;;;;;;0.00;99.90;;;;;;5033393;28;20394;-74
2024/01/20 08:26:33;;;;;;;;;;;0.30;99.90;;;;;;5033542;28;19948;-74
2024/01/20 08:29:01;;;;;;;;;;;0.50;99.90;;;;;;5033153;28;19933;-74
2024/01/20 08:31:29;;;;;;;;;;;0.80;99.90;;;;;;5033454;28;19932;-75
2024/01/20 08:33:56;;;;;;;;;;;1.00;99.90;;;;;;5033601;28;19934;-75
2024/01/20 08:36:22;;;;;;;;;;;1.10;99.90;;;;;;5033538;28;20000;-75
2024/01/20 08:38:49;;;;;;;;;;;1.20;99.90;;;;;;5033853;28;19925;-75
2024/01/20 08:41:16;;;;;;;;;;;1.20;99.90;;;;;;5033498;28;19932;-75
2024/01/20 08:43:44;;;;;;;;;;;1.20;99.90;;;;;;5034139;28;19968;-76
2024/01/20 08:46:11;;;;;;;;;;;1.30;99.90;;;;;;5034171;28;19979;-80
2024/01/20 08:48:39;;;;;;;;;;;1.50;99.90;;;;;;5034357;28;20394;-77
2024/01/20 08:51:05;;;;;;;;;;;1.70;99.90;;;;;;5034110;28;20266;-78
2024/01/20 08:53:33;;;;;;;;;;;1.80;99.90;;;;;;5039379;28;19925;-78
2024/01/20 08:56:00;;;;;;;;;;;1.90;99.90;;;;;;5040674;28;20290;-78
2024/01/20 08:58:27;;;;;;;;;;;1.80;99.90;;;;;;5043819;28;19932;-78
2024/01/20 09:00:53;;;;;;;;;;;1.60;99.90;;;;;;5061372;28;19909;-77
2024/01/20 09:03:20;;;;;;;;;;;1.50;99.90;;;;;;5060888;28;19932;-77
2024/01/20 09:05:48;;;;;;;;;;;1.50;99.90;;;;;;5045529;28;20453;-77
2024/01/20 09:08:14;;;;;;;;;;;1.40;99.90;;;;;;5038184;28;20375;-77
2024/01/20 09:10:41;;;;;;;;;;;1.30;99.90;;;;;;5038493;28;19929;-77
2024/01/20 09:13:08;;;;;;;;;;;1.20;99.90;;;;;;5039513;28;19925;-77
2024/01/20 09:15:34;;;;;;;;;;;1.40;99.90;;;;;;5038267;28;19925;-77
2024/01/20 09:18:01;;;;;;;;;;;1.60;99.90;;;;;;5038981;28;19937;-77
2024/01/20 09:20:27;;;;;;;;;;;1.80;99.90;;;;;;5039616;28;19925;-77
2024/01/20 09:22:55;;;;;;;;;;;2.10;99.90;;;;;;5038464;28;19932;-77
2024/01/20 09:25:22;;;;;;;;;;;2.30;99.90;;;;;;5036883;28;19925;-77
2024/01/20 09:27:48;;;;;;;;;;;2.50;99.90;;;;;;5036753;28;19925;-77
2024/01/20 09:30:15;;;;;;;;;;;2.70;99.90;;;;;;5037043;28;19932;-76
2024/01/20 09:32:42;;;;;;;;;;;3.00;99.90;;;;;;5036218;28;20390;-76
2024/01/20 09:35:09;;;;;;;;;;;3.60;99.90;;;;;;5036653;28;19932;-76
2024/01/20 09:37:36;;;;;;;;;;;4.10;99.90;;;;;;5036580;28;19932;-77
2024/01/20 09:40:05;;;;;;;;;;;4.60;99.90;;;;;;5037234;28;19925;-76
2024/01/20 09:42:32;;;;;;;;;;;5.00;83.10;;;;;;5036399;28;20282;-76
2024/01/20 09:44:59;;;;;;;;;;;5.10;81.10;;;;;;5036894;28;19925;-76
2024/01/20 09:47:26;;;;;;;;;;;5.50;82.50;;;;;;5037489;28;20434;-76
2024/01/20 09:49:53;;;;;;;;;;;6.00;80.30;;;;;;5037192;28;20354;-76
2024/01/20 09:52:23;;;;;;;;;;;6.50;70.10;;;;;;5036816;28;19974;-75
2024/01/20 09:54:55;;;;;;;;;;;6.90;61.50;;;;;;5037444;28;19925;-76
2024/01/20 09:57:24;;;;;;;;;;;7.10;56.30;;;;;;5037395;28;19926;-76
2024/01/20 09:59:54;;;;;;;;;;;7.30;53.50;;;;;;5036852;28;20410;-76
2024/01/20 10:02:21;;;;;;;;;;;7.00;49.20;;;;;;5036925;28;19929;-76
2024/01/20 10:04:49;;;;;;;;;;;6.50;47.50;;;;;;5036316;28;19925;-76
2024/01/20 10:07:26;;;;;;;;;;;5.60;48.30;;;;;;5036101;28;19925;-76
2024/01/20 10:09:53;;;;;;;;;;;4.80;49.20;;;;;;5035827;28;19925;-76
2024/01/20 10:12:19;;;;;;;;;;;3.50;50.50;;;;;;5035580;28;19928;-76
2024/01/20 10:14:47;;;;;;;;;;;2.50;56.90;;;;;;5035820;28;19925;-76
2024/01/20 10:17:13;;;;;;;;;;;1.60;75.10;;;;;;5035808;28;19926;-76
2024/01/20 10:19:40;;;;;;;;;;;1.00;99.50;;;;;;5035161;28;20302;-75
2024/01/20 10:22:08;;;;;;;;;;;0.40;99.90;;;;;;5035484;28;19959;-75
2024/01/20 10:24:34;;;;;;;;;;;0.10;99.90;;;;;;5035522;28;19925;-75
2024/01/20 10:27:02;;;;;;;;;;;-0.10;99.90;;;;;;5035234;28;19926;-76
2024/01/20 10:29:29;;;;;;;;;;;-0.40;99.90;;;;;;5035400;28;20011;-76
2024/01/20 10:31:57;;;;;;;;;;;-0.70;99.90;;;;;;5035406;28;19926;-76
2024/01/20 10:34:24;;;;;;;;;;;-0.90;99.90;;;;;;5035201;28;19925;-76
2024/01/20 10:36:53;;;;;;;;;;;-1.20;99.90;;;;;;5035156;28;20000;-76
2024/01/20 10:39:21;;;;;;;;;;;-1.40;99.90;;;;;;5035083;28;19933;-76
2024/01/20 10:41:48;;;;;;;;;;;-1.60;99.90;;;;;;5034690;28;20387;-76
2024/01/20 10:44:16;;;;;;;;;;;-1.60;99.90;;;;;;5034726;28;20397;-76
2024/01/20 10:46:46;;;;;;;;;;;-1.60;99.90;;;;;;5035038;28;19925;-76
2024/01/20 10:49:17;;;;;;;;;;;-1.60;99.90;;;;;;5035604;28;19975;-76
2024/01/20 10:51:44;;;;;;;;;;;-1.60;99.90;;;;;;5034875;28;20301;-76
2024/01/20 10:54:12;;;;;;;;;;;-1.60;99.90;;;;;;5035335;28;20008;-77
2024/01/20 10:56:39;;;;;;;;;;;-1.60;99.90;;;;;;5035018;28;19925;-76
2024/01/20 10:59:09;;;;;;;;;;;-1.60;99.90;;;;;;5035045;28;19925;-77
2024/01/20 11:01:35;;;;;;;;;;;-1.60;99.90;;;;;;5034686;28;19925;-77
2024/01/20 11:04:02;;;;;;;;;;;-1.60;99.90;;;;;;5035079;28;19932;-76
2024/01/20 11:06:30;;;;;;;;;;;-1.60;99.90;;;;;;5035317;28;19972;-76
2024/01/20 11:08:57;;;;;;;;;;;-1.60;99.90;;;;;;5034673;28;20016;-75
2024/01/20 11:11:26;;;;;;;;;;;-1.60;99.90;;;;;;5034432;28;20330;-76
2024/01/20 11:13:53;;;;;;;;;;;-1.60;99.90;;;;;;5033787;28;20390;-76
2024/01/20 11:16:20;;;;;;;;;;;-1.60;99.90;;;;;;5034232;28;19925;-75
2024/01/20 11:18:46;;;;;;;;;;;-1.60;99.90;;;;;;5035348;28;19975;-77
2024/01/20 11:21:14;;;;;;;;;;;-1.60;99.90;;;;;;5034414;28;20286;-77
2024/01/20 11:23:44;;;;;;;;;;;-1.60;99.90;;;;;;5034795;28;19947;-76
2024/01/20 11:26:12;;;;;;;;;;;-1.50;99.90;;;;;;5034562;28;19933;-76
2024/01/20 11:28:43;;;;;;;;;;;-1.60;99.90;;;;;;5034423;28;19925;-76
2024/01/20 11:31:17;;;;;;;;;;;-1.60;99.90;;;;;;5034018;28;19932;-77
2024/01/20 11:33:44;;;;;;;;;;;-1.50;99.90;;;;;;5034790;28;20378;-78
2024/01/20 11:36:10;;;;;;;;;;;-1.50;99.90;;;;;;5034510;28;19932;-77
2024/01/20 11:38:38;;;;;;;;;;;-1.50;99.90;;;;;;5034719;28;19973;-75
2024/01/20 11:41:06;;;;;;;;;;;-1.40;99.90;;;;;;5034383;28;19925;-75
2024/01/20 11:43:32;;;;;;;;;;;-1.40;99.90;;;;;;5034315;28;19933;-75
2024/01/20 11:45:59;;;;;;;;;;;-1.30;99.90;;;;;;5034399;28;19983;-75
2024/01/20 11:48:26;;;;;;;;;;;-1.30;99.90;;;;;;5034090;28;19925;-75
2024/01/20 11:50:52;;;;;;;;;;;-1.30;99.90;;;;;;5033531;28;20283;-74
2024/01/20 11:53:20;;;;;;;;;;;-1.20;99.90;;;;;;5034185;28;19925;-76
2024/01/20 11:55:54;;;;;;;;;;;-1.20;99.90;;;;;;5034310;28;19996;-76
2024/01/20 11:58:22;;;;;;;;;;;-1.10;99.90;;;;;;5035347;28;20002;-75
2024/01/20 12:00:50;;;;;;;;;;;-1.10;99.90;;;;;;5036552;28;19929;-75
2024/01/20 12:03:17;;;;;;;;;;;-1.00;99.90;;;;;;5051777;28;20008;-75
2024/01/20 12:05:44;;;;;;;;;;;-0.90;99.90;;;;;;5052868;28;19932;-75
2024/01/20 12:08:10;;;;;;;;;;;-0.90;99.90;;;;;;5034982;28;19925;-76
2024/01/20 12:10:37;;;;;;;;;;;-0.90;99.90;;;;;;5033794;28;20366;-74
2024/01/20 12:13:04;;;;;;;;;;;-0.80;99.90;;;;;;5033832;28;19929;-75
2024/01/20 12:15:36;;;;;;;;;;;-0.80;99.90;;;;;;5033696;28;20413;-75
2024/01/20 12:18:02;;;;;;;;;;;-0.80;99.90;;;;;;5034466;28;19932;-75
2024/01/20 12:20:29;;;;;;;;;;;-0.70;99.90;;;;;;5033607;28;19933;-75
2024/01/20 12:22:56;;;;;;;;;;;-0.70;99.90;;;;;;5033790;28;19975;-75
2024/01/20 12:25:23;;;;;;;;;;;-0.60;99.90;;;;;;5033707;28;19925;-75
2024/01/20 12:27:50;;;;;;;;;;;-0.60;99.90;;;;;;5038220;28;19925;-75
2024/01/20 12:30:16;;;;;;;;;;;-0.60;99.90;;;;;;5039001;28;19933;-75
2024/01/20 12:32:44;;;;;;;;;;;-0.60;99.90;;;;;;5037278;28;20341;-75
2024/01/20 12:35:11;;;;;;;;;;;-0.50;99.90;;;;;;5037504;28;19925;-75
2024/01/20 12:37:37;;;;;;;;;;;-0.40;99.90;;;;;;5038117;28;19924;-75
2024/01/20 12:40:05;;;;;;;;;;;-0.40;99.90;;;;;;5037100;28;19932;-75
2024/01/20 12:42:32;;;;;;;;;;;-0.30;99.90;;;;;;5037865;28;19947;-77
2024/01/20 12:44:58;;;;;;;;;;;-0.30;99.90;;;;;;5037389;28;20429;-76
2024/01/20 12:47:25;;;;;;;;;;;-0.20;99.90;;;;;;5038794;28;19932;-76
2024/01/20 12:49:53;;;;;;;;;;;-0.10;99.90;;;;;;5041020;28;19964;-76
2024/01/20 12:52:20;;;;;;;;;;;-0.10;99.90;;;;;;5040884;28;19932;-75
2024/01/20 12:54:47;;;;;;;;;;;-0.10;99.90;;;;;;5039580;28;19925;-75
2024/01/20 12:57:14;;;;;;;;;;;-0.10;99.90;;;;;;5037917;28;19971;-76
2024/01/20 12:59:40;;;;;;;;;;;0.00;98.30;;;;;;5037572;28;19925;-76
2024/01/20 13:02:07;;;;;;;;;;;0.00;91.80;;;;;;5037735;28;19933;-76
2024/01/20 13:04:33;;;;;;;;;;;0.10;87.60;;;;;;5037908;28;19929;-75
2024/01/20 13:07:01;;;;;;;;;;;0.10;91.20;;;;;;5053414;28;19926;-75
2024/01/20 13:09:28;;;;;;;;;;;0.20;95.50;;;;;;5055182;28;19948;-75
2024/01/20 13:11:55;;;;;;;;;;;0.20;99.90;;;;;;5040997;28;19976;-75
2024/01/20 13:14:22;;;;;;;;;;;0.10;99.90;;;;;;5037293;28;19925;-75
2024/01/20 13:16:49;;;;;;;;;;;0.10;99.90;;;;;;5036962;28;19925;-75
2024/01/20 13:19:15;;;;;;;;;;;0.00;99.90;;;;;;5036795;28;19929;-75
2024/01/20 13:21:42;;;;;;;;;;;0.00;99.90;;;;;;5036499;28;19925;-75
2024/01/20 13:24:10;;;;;;;;;;;0.00;99.90;;;;;;5037249;28;19925;-76
2024/01/20 13:26:36;;;;;;;;;;;-0.10;99.90;;;;;;5037527;28;19925;-77
2024/01/20 13:29:03;;;;;;;;;;;-0.10;96.90;;;;;;5036990;28;20381;-74
2024/01/20 13:31:31;;;;;;;;;;;-0.10;92.40;;;;;;5037124;28;20010;-77
2024/01/20 13:33:58;;;;;;;;;;;-0.10;95.20;;;;;;5037479;28;19925;-75
2024/01/20 13:36:24;;;;;;;;;;;-0.20;87.20;;;;;;5036756;28;19929;-77
2024/01/20 13:38:52;;;;;;;;;;;-0.10;76.60;;;;;;5036262;28;19929;-77
2024/01/20 13:41:19;;;;;;;;;;;-0.10;70.60;;;;;;5036503;28;19979;-77
2024/01/20 13:43:46;;;;;;;;;;;-0.10;69.40;;;;;;5036336;28;19933;-77
2024/01/20 13:46:13;;;;;;;;;;;-0.10;72.40;;;;;;5036358;28;19926;-77
2024/01/20 13:48:39;;;;;;;;;;;-0.10;79.00;;;;;;5036335;28;19925;-77
2024/01/20 13:51:06;;;;;;;;;;;-0.20;91.40;;;;;;5036212;28;19925;-77
2024/01/20 13:53:33;;;;;;;;;;;-0.30;98.10;;;;;;5036393;28;19975;-77
2024/01/20 13:55:59;;;;;;;;;;;-0.40;99.90;;;;;;5036231;28;19925;-77
2024/01/20 13:58:28;;;;;;;;;;;-0.50;99.90;;;;;;5036434;28;19925;-78
2024/01/20 14:00:54;;;;;;;;;;;-0.60;99.90;;;;;;5036165;28;19925;-77
2024/01/20 14:03:21;;;;;;;;;;;-0.70;99.90;;;;;;5036369;28;19932;-77
2024/01/20 14:05:49;;;;;;;;;;;-0.80;99.90;;;;;;5037101;28;19975;-74
2024/01/20 14:08:16;;;;;;;;;;;-0.80;99.90;;;;;;5036108;28;19926;-74
2024/01/20 14:10:42;;;;;;;;;;;-0.90;99.90;;;;;;5036125;28;19932;-74
2024/01/20 14:13:09;;;;;;;;;;;-1.00;99.90;;;;;;5035811;28;19932;-75
2024/01/20 14:15:38;;;;;;;;;;;-1.10;99.90;;;;;;5035658;28;19975;-75
2024/01/20 14:18:05;;;;;;;;;;;-1.10;99.90;;;;;;5035998;28;19932;-76
2024/01/20 14:20:32;;;;;;;;;;;-1.20;99.90;;;;;;5035820;28;19925;-75
2024/01/20 14:22:59;;;;;;;;;;;-1.20;99.90;;;;;;5035443;28;20375;-75
2024/01/20 14:25:27;;;;;;;;;;;-1.10;99.90;;;;;;5035869;28;19931;-76
2024/01/20 14:27:57;;;;;;;;;;;-1.10;99.90;;;;;;5036182;28;19932;-75
2024/01/20 14:30:23;;;;;;;;;;;-1.00;96.30;;;;;;5037874;28;19925;-75
2024/01/20 14:32:51;;;;;;;;;;;-0.90;99.90;;;;;;5035566;28;19925;-75
2024/01/20 14:35:18;;;;;;;;;;;-0.90;99.90;;;;;;5035327;28;19971;-75
2024/01/20 14:37:44;;;;;;;;;;;-0.90;99.90;;;;;;5035683;28;20021;-75
2024/01/20 14:40:12;;;;;;;;;;;-0.90;99.90;;;;;;5036180;28;19932;-76
2024/01/20 14:42:38;;;;;;;;;;;-0.90;99.90;;;;;;5035684;28;19960;-75
2024/01/20 14:45:05;;;;;;;;;;;-1.00;99.90;;;;;;5036412;28;19929;-76
2024/01/20 14:47:32;;;;;;;;;;;-1.00;99.90;;;;;;5035890;28;19925;-77
2024/01/20 14:50:03;;;;;;;;;;;-1.10;99.90;;;;;;5036126;28;20437;-75
2024/01/20 14:52:30;;;;;;;;;;;-1.20;99.90;;;;;;5035695;28;19935;-77
2024/01/20 14:54:58;;;;;;;;;;;-1.30;99.90;;;;;;5036648;28;19925;-76
2024/01/20 14:57:25;;;;;;;;;;;-1.30;99.90;;;;;;5036195;28;19925;-76
2024/01/20 14:59:51;;;;;;;;;;;-1.20;99.90;;;;;;5036902;28;19972;-74
2024/01/20 15:02:18;;;;;;;;;;;-1.20;95.50;;;;;;5035416;28;20390;-75
2024/01/20 15:04:44;;;;;;;;;;;-1.10;94.30;;;;;;5035066;28;19936;-75
2024/01/20 15:07:12;;;;;;;;;;;-1.10;91.80;;;;;;5035380;28;19932;-75
2024/01/20 15:09:39;;;;;;;;;;;-1.10;89.40;;;;;;5034884;28;19932;-75
2024/01/20 15:12:06;;;;;;;;;;;-1.10;82.00;;;;;;5034633;28;19957;-75
2024/01/20 15:14:32;;;;;;;;;;;-1.10;80.40;;;;;;5034741;28;19925;-75
2024/01/20 15:16:59;;;;;;;;;;;-1.10;81.10;;;;;;5034643;28;19932;-75
2024/01/20 15:19:26;;;;;;;;;;;-1.20;82.50;;;;;;5034616;28;20445;-75
2024/01/20 15:21:53;;;;;;;;;;;-1.20;84.00;;;;;;5034141;28;19925;-75
2024/01/20 15:24:20;;;;;;;;;;;-1.30;87.40;;;;;;5034554;28;19929;-75
2024/01/20 15:26:47;;;;;;;;;;;-1.30;90.60;;;;;;5034532;28;19929;-75
2024/01/20 15:29:14;;;;;;;;;;;-1.30;92.50;;;;;;5034431;28;19948;-75
2024/01/20 15:31:40;;;;;;;;;;;-1.40;91.70;;;;;;5034536;28;19925;-75
2024/01/20 15:34:07;;;;;;;;;;;-1.40;89.70;;;;;;5034611;28;19929;-75
2024/01/20 15:36:33;;;;;;;;;;;-1.50;90.00;;;;;;5034379;28;20247;-75
2024/01/20 15:39:00;;;;;;;;;;;-1.50;84.00;;;;;;5034453;28;19929;-76
2024/01/20 15:41:28;;;;;;;;;;;-1.50;82.60;;;;;;5037551;28;19925;-77
2024/01/20 15:43:55;;;;;;;;;;;-1.60;88.30;;;;;;5037776;28;19925;-77
2024/01/20 15:46:22;;;;;;;;;;;-1.60;89.10;;;;;;5037175;28;19933;-77
2024/01/20 15:48:48;;;;;;;;;;;-1.70;88.20;;;;;;5037899;28;19925;-77
2024/01/20 15:51:15;;;;;;;;;;;-1.70;84.90;;;;;;5037471;28;19929;-76
2024/01/20 15:53:44;;;;;;;;;;;-1.70;85.40;;;;;;5037112;28;20275;-76
2024/01/20 15:56:12;;;;;;;;;;;-1.80;93.00;;;;;;5036787;28;19981;-75
2024/01/20 15:58:45;;;;;;;;;;;-2.00;99.90;;;;;;5036820;28;19925;-76
2024/01/20 16:01:15;;;;;;;;;;;-2.00;99.90;;;;;;5035616;28;19925;-76
2024/01/20 16:03:44;;;;;;;;;;;-2.20;99.90;;;;;;5036737;28;19933;-74
2024/01/20 16:06:11;;;;;;;;;;;-2.30;99.90;;;;;;5037023;28;19932;-75
2024/01/20 16:08:40;;;;;;;;;;;-2.50;99.90;;;;;;5036982;28;19956;-76
2024/01/20 16:11:09;;;;;;;;;;;-2.60;99.90;;;;;;5036460;28;19932;-76
2024/01/20 16:13:36;;;;;;;;;;;-2.70;99.90;;;;;;5035843;28;19925;-76
2024/01/20 16:16:05;;;;;;;;;;;-2.80;99.90;;;;;;5035990;28;20469;-74
2024/01/20 16:18:31;;;;;;;;;;;-2.90;99.90;;;;;;5068572;23;20340;-73
2024/01/20 16:21:02;;;;;;;;;;;-3.00;99.90;;;;;;5054029;28;20286;-73
2024/01/20 16:23:29;;;;;;;;;;;-3.00;99.90;;;;;;5054291;28;19925;-71
2024/01/20 16:25:55;;;;;;;;;;;-3.20;99.90;;;;;;5054037;28;19936;-69
2024/01/20 16:28:22;;;;;;;;;;;-3.20;99.90;;;;;;5043117;28;19925;-69
2024/01/20 16:30:48;;;;;;;;;;;-3.40;99.90;;;;;;5034328;28;19925;-69
2024/01/20 16:33:16;;;;;;;;;;;-3.50;99.90;;;;;;5034312;28;19929;-69
2024/01/20 16:35:43;;;;;;;;;;;-3.60;99.90;;;;;;5034096;28;19925;-70
2024/01/20 16:38:10;;;;;;;;;;;-3.70;99.90;;;;;;5034244;28;19925;-71
2024/01/20 16:40:36;;;;;;;;;;;-3.80;99.90;;;;;;5033970;28;19925;-70
2024/01/20 16:43:03;;;;;;;;;;;-3.80;99.90;;;;;;5034021;28;19932;-71
2024/01/20 16:45:29;;;;;;;;;;;-3.90;99.90;;;;;;5034382;28;19929;-72
2024/01/20 16:47:57;;;;;;;;;;;-3.90;99.90;;;;;;5033634;28;19925;-73
2024/01/20 16:50:25;;;;;;;;;;;-3.90;99.90;;;;;;5033935;28;19929;-73
2024/01/20 16:52:51;;;;;;;;;;;-4.00;99.90;;;;;;5033966;28;19925;-73
2024/01/20 16:55:18;;;;;;;;;;;-4.10;99.90;;;;;;5034368;28;19932;-73
2024/01/20 16:57:45;;;;;;;;;;;-4.20;99.90;;;;;;5033543;28;20023;-73
2024/01/20 17:00:12;;;;;;;;;;;-4.20;99.90;;;;;;5033898;28;19932;-72
2024/01/20 17:02:39;;;;;;;;;;;-4.30;99.90;;;;;;5033597;28;20321;-72
2024/01/20 17:05:06;;;;;;;;;;;-4.40;99.90;;;;;;5033979;28;20040;-72
2024/01/20 17:07:33;;;;;;;;;;;-4.50;99.90;;;;;;5033509;28;20329;-72
2024/01/20 17:10:00;;;;;;;;;;;-4.60;99.90;;;;;;5033722;28;19936;-72
2024/01/20 17:12:27;;;;;;;;;;;-4.70;99.90;;;;;;5034146;28;19932;-72
2024/01/20 17:14:53;;;;;;;;;;;-4.70;99.90;;;;;;5037318;28;19932;-72
2024/01/20 17:17:20;;;;;;;;;;;-4.70;99.90;;;;;;5037012;28;19929;-71
2024/01/20 17:19:46;;;;;;;;;;;-4.80;99.90;;;;;;5036855;28;20306;-72
2024/01/20 17:22:13;;;;;;;;;;;-4.90;99.90;;;;;;5036934;28;19925;-72
2024/01/20 17:24:40;;;;;;;;;;;-4.90;99.90;;;;;;5036787;28;20394;-73
2024/01/20 17:27:07;;;;;;;;;;;-5.00;99.90;;;;;;5036987;28;19929;-72
2024/01/20 17:29:34;;;;;;;;;;;-5.00;99.90;;;;;;5036860;28;19925;-72
2024/01/20 17:32:01;;;;;;;;;;;-5.00;99.90;;;;;;5036982;28;19933;-72
2024/01/20 17:34:28;;;;;;;;;;;-5.10;99.90;;;;;;5036929;28;19932;-72
2024/01/20 17:36:55;;;;;;;;;;;-5.10;99.90;;;;;;5036971;28;19929;-72
2024/01/20 17:39:24;;;;;;;;;;;-5.20;99.90;;;;;;5036448;28;19926;-72
2024/01/20 17:41:52;;;;;;;;;;;-5.20;99.90;;;;;;5038343;28;19925;-71
2024/01/20 17:44:19;;;;;;;;;;;-5.20;99.90;;;;;;5037025;28;20027;-72
2024/01/20 17:46:45;;;;;;;;;;;-5.30;99.90;;;;;;5040779;28;19936;-73
2024/01/20 17:49:12;;;;;;;;;;;-5.30;99.90;;;;;;5036950;28;19932;-74
2024/01/20 17:51:40;;;;;;;;;;;-5.30;99.90;;;;;;5037075;28;20020;-73
2024/01/20 17:54:07;;;;;;;;;;;-5.40;99.90;;;;;;5040766;28;19925;-74
2024/01/20 17:56:33;;;;;;;;;;;-5.40;99.90;;;;;;5036937;28;19925;-74
2024/01/20 17:59:01;;;;;;;;;;;-5.40;99.90;;;;;;5036551;28;19932;-74
2024/01/20 18:01:28;;;;;;;;;;;-5.50;99.90;;;;;;5036392;28;19979;-74
2024/01/20 18:03:54;;;;;;;;;;;-5.50;99.90;;;;;;5036331;28;19925;-74
2024/01/20 18:06:21;;;;;;;;;;;-5.50;99.90;;;;;;5036678;28;19929;-74
2024/01/20 18:08:47;;;;;;;;;;;-5.50;99.90;;;;;;5036089;28;20401;-73
2024/01/20 18:11:15;;;;;;;;;;;-5.60;99.90;;;;;;5037126;28;19925;-73
2024/01/20 18:13:42;;;;;;;;;;;-5.60;99.90;;;;;;5037480;28;20336;-73
2024/01/20 18:16:10;;;;;;;;;;;-5.60;99.90;;;;;;5036824;28;19925;-73
2024/01/20 18:18:36;;;;;;;;;;;-5.70;99.90;;;;;;5043475;28;19925;-73
2024/01/20 18:21:03;;;;;;;;;;;-5.70;99.90;;;;;;5044124;28;20397;-74
2024/01/20 18:23:30;;;;;;;;;;;-5.70;99.90;;;;;;5041526;28;19929;-71
2024/01/20 18:25:57;;;;;;;;;;;-5.70;99.90;;;;;;5042525;28;19981;-72
2024/01/20 18:28:23;;;;;;;;;;;-5.70;99.90;;;;;;5039679;28;20278;-72
2024/01/20 18:30:51;;;;;;;;;;;-5.70;99.90;;;;;;5036560;28;19926;-72
2024/01/20 18:33:19;;;;;;;;;;;-5.80;99.90;;;;;;5036827;28;20019;-72
2024/01/20 18:35:45;;;;;;;;;;;-5.80;99.90;;;;;;5036079;28;20004;-73
2024/01/20 18:38:12;;;;;;;;;;;-5.80;99.90;;;;;;5038692;28;19925;-73
2024/01/20 18:40:38;;;;;;;;;;;-5.80;99.90;;;;;;5035860;28;19932;-72
2024/01/20 18:43:05;;;;;;;;;;;-5.80;99.90;;;;;;5035526;28;20366;-72
2024/01/20 18:45:32;;;;;;;;;;;-5.80;99.90;;;;;;5036017;28;20386;-71
2024/01/20 18:47:58;;;;;;;;;;;-5.80;99.90;;;;;;5036489;28;19931;-70
2024/01/20 18:50:27;;;;;;;;;;;-5.80;99.90;;;;;;5036716;28;19925;-70
2024/01/20 18:52:54;;;;;;;;;;;-5.80;99.90;;;;;;5037147;28;19932;-72
2024/01/20 18:55:21;;;;;;;;;;;-5.80;99.90;;;;;;5037255;28;19932;-71
2024/01/20 18:57:47;;;;;;;;;;;-5.80;99.90;;;;;;5037052;28;19932;-72
2024/01/20 19:00:15;;;;;;;;;;;-5.80;99.90;;;;;;5036611;28;19925;-71
2024/01/20 19:02:41;;;;;;;;;;;-5.80;99.90;;;;;;5036575;28;19933;-71
2024/01/20 19:05:11;;;;;;;;;;;-5.80;99.90;;;;;;5038086;28;20003;-71
2024/01/20 19:07:39;;;;;;;;;;;-5.90;99.90;;;;;;5036818;28;19926;-72
2024/01/20 19:10:09;;;;;;;;;;;-5.90;99.90;;;;;;5037043;28;19925;-71
2024/01/20 19:12:36;;;;;;;;;;;-5.90;99.90;;;;;;5037927;28;20114;-72
2024/01/20 19:15:03;;;;;;;;;;;-5.90;99.90;;;;;;5037293;28;19925;-73
2024/01/20 19:17:29;;;;;;;;;;;-5.90;99.90;;;;;;5036745;28;19936;-72
2024/01/20 19:19:55;;;;;;;;;;;-5.90;99.90;;;;;;5036812;28;19929;-72
2024/01/20 19:22:21;;;;;;;;;;;-5.90;99.90;;;;;;5036489;28;19931;-72
2024/01/20 19:24:50;;;;;;;;;;;-5.90;99.90;;;;;;5038723;28;20409;-72
2024/01/20 19:27:16;;;;;;;;;;;-5.90;99.90;;;;;;5036601;28;19929;-74
2024/01/20 19:29:43;;;;;;;;;;;-5.90;99.90;;;;;;5036706;28;19925;-72
2024/01/20 19:32:09;;;;;;;;;;;-6.00;99.90;;;;;;5037001;28;19929;-73
2024/01/20 19:34:36;;;;;;;;;;;-6.00;99.90;;;;;;5036419;28;19929;-72
2024/01/20 19:37:03;;;;;;;;;;;-6.00;99.90;;;;;;5036155;28;19925;-74
2024/01/20 19:39:30;;;;;;;;;;;-6.00;99.90;;;;;;5036384;28;20349;-73
2024/01/20 19:41:58;;;;;;;;;;;-6.00;99.90;;;;;;5035957;28;19932;-73
2024/01/20 19:44:25;;;;;;;;;;;-6.00;99.90;;;;;;5036450;28;20310;-72
2024/01/20 19:46:51;;;;;;;;;;;-6.10;99.90;;;;;;5035771;28;20302;-72
2024/01/20 19:49:21;;;;;;;;;;;-6.10;99.90;;;;;;5036101;28;19929;-72
2024/01/20 19:51:47;;;;;;;;;;;-6.10;99.90;;;;;;5039973;28;20386;-72
2024/01/20 19:54:16;;;;;;;;;;;-6.10;99.90;;;;;;5036244;28;21522;-73
2024/01/20 19:56:43;;;;;;;;;;;-6.10;99.90;;;;;;5036695;28;19931;-72
2024/01/20 19:59:12;;;;;;;;;;;-6.10;99.90;;;;;;5036531;28;19968;-72
2024/01/20 20:01:42;;;;;;;;;;;-6.20;99.90;;;;;;5036387;28;19947;-72
2024/01/20 20:04:09;;;;;;;;;;;-6.20;99.90;;;;;;5035853;28;19971;-72
2024/01/20 20:06:35;;;;;;;;;;;-6.20;99.90;;;;;;5036344;28;19925;-71
2024/01/20 20:09:02;;;;;;;;;;;-6.20;99.90;;;;;;5036010;28;19929;-72
2024/01/20 20:11:29;;;;;;;;;;;-6.30;99.90;;;;;;5036049;28;19972;-71
2024/01/20 20:13:57;;;;;;;;;;;-6.30;99.90;;;;;;5035681;28;19925;-72
2024/01/20 20:16:25;;;;;;;;;;;-6.30;99.90;;;;;;5036527;28;19975;-73
2024/01/20 20:18:51;;;;;;;;;;;-6.30;99.90;;;;;;5035349;28;19964;-72
2024/01/20 20:21:18;;;;;;;;;;;-6.30;99.90;;;;;;5034722;28;19925;-72
2024/01/20 20:23:44;;;;;;;;;;;-6.40;99.90;;;;;;5035311;28;19925;-73
2024/01/20 20:26:11;;;;;;;;;;;-6.40;99.90;;;;;;5035010;28;19929;-73
2024/01/20 20:28:37;;;;;;;;;;;-6.40;99.90;;;;;;5035208;28;19936;-72
2024/01/20 20:31:05;;;;;;;;;;;-6.40;99.90;;;;;;5035210;28;19932;-72